Weston Turville, United Kingdom
Current Conditions -  °F | °C
As of 5:50 PM on Saturday 22 Nov 2014 (Local Time) from EGGW Reporting Station
Haze Haze  
Wind Chill: 55°   Ceiling: 1400
Heat Index: 55°   Visibility: 2.8mi
Dew Point: 55°   Wind: 6mph
Humidity: 100%   Direction: 180°S
Pressure: 29.94"   Gusts: NA
Location:  51.79°N, 0.76°W
Report Text: EGGW 221750Z 18005KT 150V220 4500 BR SCT008 BKN014 13/13 Q1014
Loading
Personal Weather Stations






























Interactive Weather Map New forecast layout! Learn more

10-Day Weather Forecast

Advertisements
Track Severe Weather on mobile